createdAt,value
2023-05-25T00:01:01.812Z,53.07
2023-05-25T00:02:24.977Z,53.02
2023-05-25T00:03:46.991Z,53.14
2023-05-25T00:05:09.197Z,53.30
2023-05-25T00:06:31.574Z,53.05
2023-05-25T00:07:52.613Z,53.29
2023-05-25T00:09:14.702Z,53.10
2023-05-25T00:10:36.989Z,53.11
2023-05-25T00:12:03.019Z,53.14
2023-05-25T00:13:26.240Z,53.18
2023-05-25T00:14:48.152Z,53.13
2023-05-25T00:16:09.213Z,53.37
2023-05-25T00:17:58.761Z,53.17
2023-05-25T00:19:48.904Z,53.37
2023-05-25T00:24:41.061Z,53.30
2023-05-25T00:26:26.189Z,53.21
2023-05-25T00:28:20.910Z,53.22
2023-05-25T00:30:01.574Z,53.42
2023-05-25T00:31:56.143Z,53.23
2023-05-25T00:33:22.810Z,53.30
2023-05-25T00:34:44.289Z,53.27
2023-05-25T00:36:06.458Z,53.20
2023-05-25T00:37:27.417Z,53.19
2023-05-25T00:38:49.333Z,53.45
2023-05-25T00:40:16.587Z,53.26
2023-05-25T00:41:41.673Z,53.48
2023-05-25T00:43:04.195Z,53.36
2023-05-25T00:44:25.326Z,53.38
2023-05-25T00:45:49.447Z,53.32
2023-05-25T00:47:12.089Z,53.34
2023-05-25T00:48:40.055Z,53.30
2023-05-25T00:50:11.493Z,53.64
2023-05-25T00:55:03.642Z,53.69
2023-05-25T00:56:33.702Z,53.52
2023-05-25T00:58:01.485Z,53.39
2023-05-25T00:59:28.964Z,53.50
2023-05-25T01:00:53.612Z,53.57
2023-05-25T01:02:17.936Z,53.61
2023-05-25T01:03:40.615Z,53.47
2023-05-25T01:05:04.027Z,53.56
2023-05-25T01:06:27.328Z,53.63
2023-05-25T01:07:52.989Z,53.72
2023-05-25T01:09:16.543Z,53.55
2023-05-25T01:10:43.794Z,53.57
2023-05-25T01:12:09.153Z,53.59
2023-05-25T01:13:31.362Z,53.78
2023-05-25T01:14:53.608Z,53.64
2023-05-25T01:16:17.006Z,53.73
2023-05-25T01:17:39.169Z,53.83
2023-05-25T01:19:03.059Z,53.73
2023-05-25T01:20:25.037Z,53.90
2023-05-25T01:21:54.067Z,53.73
2023-05-25T01:23:18.136Z,53.91
2023-05-25T01:24:41.152Z,53.88
2023-05-25T01:26:07.394Z,53.90
2023-05-25T01:27:33.245Z,53.93
2023-05-25T01:28:56.097Z,53.91
2023-05-25T01:30:18.590Z,54.01
2023-05-25T01:31:39.964Z,53.81
2023-05-25T01:33:19.268Z,53.78
2023-05-25T01:34:45.382Z,54.14
2023-05-25T01:36:29.653Z,53.82
2023-05-25T01:45:59.078Z,53.91
2023-05-25T01:47:36.322Z,54.08
2023-05-25T01:49:06.447Z,54.17
2023-05-25T01:50:41.873Z,54.05
2023-05-25T01:52:14.416Z,54.08
2023-05-25T01:54:17.331Z,53.94
2023-05-25T01:55:49.366Z,54.26
2023-05-25T01:57:13.971Z,54.25
2023-05-25T01:58:41.827Z,54.00
2023-05-25T02:00:05.028Z,54.22
2023-05-25T02:01:36.733Z,54.39
2023-05-25T02:02:58.455Z,54.28
2023-05-25T02:04:22.424Z,54.37
2023-05-25T02:05:45.364Z,54.33
2023-05-25T02:07:07.760Z,54.34
2023-05-25T02:08:29.875Z,54.39
2023-05-25T02:09:54.832Z,54.42
2023-05-25T02:11:15.530Z,54.53
2023-05-25T02:12:38.703Z,54.44
2023-05-25T02:13:59.962Z,54.50
2023-05-25T02:15:25.015Z,54.28
2023-05-25T02:16:49.169Z,54.64
2023-05-25T02:18:13.904Z,54.56
2023-05-25T02:19:35.653Z,54.65
2023-05-25T02:21:01.742Z,54.50
2023-05-25T02:22:23.053Z,54.58
2023-05-25T02:23:44.926Z,54.53
2023-05-25T02:25:06.365Z,54.66
2023-05-25T02:26:32.439Z,54.54
2023-05-25T02:27:55.196Z,54.52
2023-05-25T02:29:17.130Z,54.75
2023-05-25T02:30:38.273Z,54.58
2023-05-25T02:32:00.276Z,54.68
2023-05-25T02:33:29.843Z,54.84
2023-05-25T02:34:53.492Z,54.72
2023-05-25T02:36:17.491Z,54.65
2023-05-25T02:37:39.865Z,54.78
2023-05-25T02:39:01.302Z,54.83
2023-05-25T02:40:24.199Z,54.83
2023-05-25T02:41:45.056Z,54.69
2023-05-25T02:43:08.243Z,54.83
2023-05-25T02:44:30.084Z,54.78
2023-05-25T02:45:51.636Z,54.77
2023-05-25T02:47:48.322Z,54.75
2023-05-25T02:49:16.037Z,54.87
2023-05-25T02:50:37.353Z,54.87
2023-05-25T02:52:03.655Z,54.84
2023-05-25T02:53:25.617Z,55.00
2023-05-25T02:54:48.741Z,54.89
2023-05-25T02:56:16.619Z,54.84
2023-05-25T02:57:38.034Z,55.01
2023-05-25T02:59:05.753Z,54.95
2023-05-25T03:00:27.571Z,54.89
2023-05-25T03:01:49.604Z,55.02
2023-05-25T03:03:10.300Z,55.02
2023-05-25T03:04:34.570Z,55.12
2023-05-25T03:05:57.928Z,54.82
2023-05-25T03:07:19.892Z,54.97
2023-05-25T03:08:42.966Z,54.83
2023-05-25T03:10:05.056Z,55.05
2023-05-25T03:11:27.558Z,55.08
2023-05-25T03:12:51.357Z,55.14
2023-05-25T03:14:14.721Z,54.98
2023-05-25T03:16:07.313Z,54.93
2023-05-25T03:17:34.957Z,54.94
2023-05-25T03:18:56.953Z,54.74
2023-05-25T03:20:17.776Z,54.89
2023-05-25T03:21:43.123Z,54.83
2023-05-25T03:23:03.975Z,54.99
2023-05-25T03:24:26.933Z,54.67
2023-05-25T03:25:52.353Z,54.93
2023-05-25T03:27:13.378Z,54.79
2023-05-25T03:28:38.746Z,54.73
2023-05-25T03:30:01.703Z,54.64
2023-05-25T03:31:24.943Z,54.55
2023-05-25T03:32:46.334Z,54.35
2023-05-25T03:34:10.352Z,54.38
2023-05-25T03:35:32.589Z,54.26
2023-05-25T03:36:55.290Z,54.12
2023-05-25T03:38:16.286Z,54.24
2023-05-25T03:39:38.651Z,54.01
2023-05-25T03:41:03.504Z,54.01
2023-05-25T03:42:24.557Z,53.96
2023-05-25T03:43:46.175Z,53.88
2023-05-25T03:45:10.443Z,53.61
2023-05-25T03:46:33.071Z,53.65
2023-05-25T03:47:55.350Z,53.56
2023-05-25T03:49:16.429Z,53.56
2023-05-25T03:50:40.404Z,53.52
2023-05-25T03:52:01.676Z,53.47
2023-05-25T03:53:23.763Z,53.46
2023-05-25T03:54:44.729Z,53.54
2023-05-25T03:56:07.022Z,53.61
2023-05-25T03:57:31.229Z,53.30
2023-05-25T03:58:54.275Z,53.35
2023-05-25T04:00:23.717Z,53.21
2023-05-25T04:01:44.785Z,53.26
2023-05-25T04:03:07.372Z,53.24
2023-05-25T04:04:30.535Z,52.96
2023-05-25T04:05:53.796Z,52.88
2023-05-25T04:07:15.091Z,53.00
2023-05-25T04:08:42.165Z,52.73
2023-05-25T04:10:03.372Z,52.71
2023-05-25T04:11:26.151Z,52.67
2023-05-25T04:12:48.373Z,52.61
2023-05-25T04:14:11.332Z,52.60
2023-05-25T04:15:37.966Z,52.79
2023-05-25T04:17:08.123Z,52.81
2023-05-25T04:18:29.168Z,52.73
2023-05-25T04:19:51.013Z,52.67
2023-05-25T04:21:19.354Z,52.76
2023-05-25T04:22:46.512Z,52.58
2023-05-25T04:24:13.163Z,52.88
2023-05-25T04:25:42.530Z,52.67
2023-05-25T04:27:04.515Z,52.43
2023-05-25T04:28:28.329Z,52.53
2023-05-25T04:30:07.252Z,52.34
2023-05-25T04:31:45.950Z,52.33
2023-05-25T04:33:32.222Z,52.28
2023-05-25T04:34:59.433Z,52.37
2023-05-25T04:37:17.319Z,52.28
2023-05-25T04:38:52.359Z,52.27
2023-05-25T04:40:31.404Z,52.34
2023-05-25T04:41:55.203Z,52.34
2023-05-25T04:43:21.693Z,52.22
2023-05-25T04:44:44.169Z,52.23
2023-05-25T04:46:05.506Z,52.29
2023-05-25T04:47:45.475Z,52.39
2023-05-25T04:49:08.697Z,52.31
2023-05-25T04:50:31.630Z,52.30
2023-05-25T04:51:56.990Z,52.40
2023-05-25T04:53:20.621Z,52.13
2023-05-25T04:56:29.954Z,52.23
2023-05-25T04:57:53.536Z,52.26
2023-05-25T04:59:16.831Z,52.26
2023-05-25T05:00:40.465Z,52.14
2023-05-25T05:02:03.792Z,52.01
2023-05-25T05:03:27.425Z,52.08
2023-05-25T05:04:52.656Z,52.10
2023-05-25T05:06:15.386Z,51.81
2023-05-25T05:07:46.110Z,51.93
2023-05-25T05:12:17.481Z,51.74
2023-05-25T05:14:28.073Z,51.57
2023-05-25T05:17:49.213Z,51.55
2023-05-25T05:19:13.039Z,51.53
2023-05-25T05:20:35.287Z,51.51
2023-05-25T05:22:08.992Z,51.47
2023-05-25T05:26:16.116Z,51.12
2023-05-25T05:27:37.341Z,51.10
2023-05-25T05:29:07.709Z,51.06
2023-05-25T05:30:31.912Z,51.08
2023-05-25T05:31:55.801Z,50.89
2023-05-25T05:33:18.085Z,50.87
2023-05-25T05:34:46.450Z,50.93
2023-05-25T05:36:23.717Z,50.89
2023-05-25T05:37:47.129Z,50.74
2023-05-25T05:39:09.286Z,50.67
2023-05-25T05:40:31.183Z,50.59
2023-05-25T05:41:52.367Z,50.59
2023-05-25T05:43:15.728Z,50.65
2023-05-25T05:44:37.742Z,50.32
2023-05-25T05:45:59.662Z,50.31
2023-05-25T05:47:24.493Z,50.27
2023-05-25T05:48:49.723Z,50.19
2023-05-25T05:50:12.364Z,50.16
2023-05-25T05:51:36.343Z,50.23
2023-05-25T05:52:58.229Z,50.16
2023-05-25T05:54:20.767Z,50.25
2023-05-25T05:55:43.441Z,50.29
2023-05-25T05:57:05.343Z,50.21
2023-05-25T05:58:28.095Z,50.00
2023-05-25T05:59:51.536Z,49.89
2023-05-25T06:01:14.345Z,49.98
2023-05-25T06:02:37.986Z,49.84
2023-05-25T06:04:01.530Z,49.72
2023-05-25T06:05:25.048Z,49.80
2023-05-25T06:06:47.209Z,49.77
2023-05-25T06:08:10.390Z,49.55
2023-05-25T06:09:32.523Z,49.55
2023-05-25T06:10:56.176Z,49.40
2023-05-25T06:12:19.558Z,49.46
2023-05-25T06:13:41.497Z,49.43
2023-05-25T06:15:03.712Z,49.26
2023-05-25T06:16:26.176Z,49.21
2023-05-25T06:17:48.538Z,49.20
2023-05-25T06:19:10.521Z,49.09
2023-05-25T06:20:33.802Z,48.91
2023-05-25T06:21:55.861Z,48.79
2023-05-25T06:23:19.903Z,48.73
2023-05-25T06:24:41.647Z,48.59
2023-05-25T06:26:07.065Z,48.66
2023-05-25T06:27:29.432Z,48.45
2023-05-25T06:28:51.569Z,48.50
2023-05-25T06:30:14.273Z,48.37
2023-05-25T06:31:36.737Z,48.26
2023-05-25T06:32:58.636Z,48.38
2023-05-25T06:34:23.024Z,48.31
2023-05-25T06:35:46.871Z,48.32
2023-05-25T06:37:08.538Z,48.19
2023-05-25T06:38:31.505Z,48.25
2023-05-25T06:39:57.566Z,48.11
2023-05-25T06:41:21.952Z,48.10
2023-05-25T06:42:44.367Z,48.00
2023-05-25T06:44:26.390Z,47.73
2023-05-25T06:45:48.714Z,47.60
2023-05-25T06:47:12.149Z,47.53
2023-05-25T06:48:42.585Z,47.56
2023-05-25T06:50:09.034Z,47.36
2023-05-25T06:51:33.183Z,47.23
2023-05-25T06:52:59.058Z,47.11
2023-05-25T06:54:22.418Z,47.03
2023-05-25T06:56:14.386Z,46.80
2023-05-25T06:57:38.520Z,46.91
2023-05-25T06:59:00.670Z,46.75
2023-05-25T07:00:21.697Z,46.65
2023-05-25T07:01:47.547Z,46.54
2023-05-25T07:03:10.096Z,46.46
2023-05-25T07:04:33.257Z,46.37
2023-05-25T07:05:55.113Z,46.25
2023-05-25T07:07:18.466Z,46.24
2023-05-25T07:08:40.472Z,46.20
2023-05-25T07:10:05.276Z,46.16
2023-05-25T07:11:30.615Z,46.05
2023-05-25T07:16:22.713Z,45.68
2023-05-25T07:17:45.349Z,45.91
2023-05-25T07:19:07.444Z,45.64
2023-05-25T07:20:32.925Z,45.47
2023-05-25T07:21:55.090Z,45.59
2023-05-25T07:23:18.454Z,45.66
2023-05-25T07:24:39.461Z,45.56
2023-05-25T07:26:03.017Z,45.43
2023-05-25T07:27:26.975Z,45.65
2023-05-25T07:28:53.568Z,45.54
2023-05-25T07:30:23.320Z,45.49
2023-05-25T07:32:34.449Z,45.54
2023-05-25T07:33:56.624Z,45.49
2023-05-25T07:35:18.354Z,45.45
2023-05-25T07:36:40.530Z,45.40
2023-05-25T07:38:02.485Z,45.48
2023-05-25T07:39:26.985Z,45.36
2023-05-25T07:40:49.321Z,45.23
2023-05-25T07:42:12.041Z,45.29
2023-05-25T07:43:33.732Z,45.28
2023-05-25T07:44:55.569Z,45.40
2023-05-25T07:46:26.052Z,45.17
2023-05-25T07:47:48.371Z,45.14
2023-05-25T07:49:13.397Z,45.05
2023-05-25T07:50:35.628Z,44.79
2023-05-25T07:52:09.531Z,44.92
2023-05-25T07:53:42.749Z,44.95
2023-05-25T07:55:22.048Z,44.95
2023-05-25T07:56:56.273Z,44.62
2023-05-25T07:58:19.108Z,44.59
2023-05-25T07:59:52.936Z,44.83
2023-05-25T08:01:26.877Z,44.70
2023-05-25T08:02:49.947Z,44.68
2023-05-25T08:05:29.327Z,44.63
2023-05-25T08:06:42.408Z,44.55
2023-05-25T08:08:47.847Z,44.30
2023-05-25T08:12:49.537Z,44.42
2023-05-25T08:19:07.176Z,43.81
2023-05-25T08:29:47.436Z,43.68
2023-05-25T08:32:13.236Z,43.56
2023-05-25T08:33:41.257Z,43.57
2023-05-25T08:35:17.968Z,43.65
2023-05-25T08:41:49.736Z,43.39
2023-05-25T08:47:57.174Z,42.91
2023-05-25T08:49:35.226Z,42.85
2023-05-25T08:51:03.451Z,42.95
2023-05-25T08:53:10.442Z,42.90
2023-05-25T08:54:58.661Z,42.70
2023-05-25T09:01:25.178Z,42.80
2023-05-25T09:03:24.887Z,42.64
2023-05-25T09:12:24.368Z,42.14
2023-05-25T09:13:50.331Z,42.03
2023-05-25T12:53:05.902Z,32.34
2023-05-25T12:54:45.828Z,32.40
2023-05-25T12:56:12.930Z,32.49
2023-05-25T12:57:54.504Z,32.53
2023-05-25T12:59:59.336Z,32.69
2023-05-25T13:01:26.326Z,32.74
2023-05-25T13:02:54.920Z,32.57
2023-05-25T13:04:16.207Z,32.77
2023-05-25T13:05:41.250Z,32.64
2023-05-25T13:07:03.722Z,32.75
2023-05-25T13:08:30.377Z,32.57
2023-05-25T13:09:52.920Z,32.62
2023-05-25T13:11:15.493Z,32.84
2023-05-25T13:12:39.823Z,32.95
2023-05-25T13:14:04.997Z,32.99
2023-05-25T13:15:27.712Z,32.93
2023-05-25T13:16:49.649Z,33.02
2023-05-25T13:18:11.694Z,32.99
2023-05-25T13:19:32.818Z,32.54
2023-05-25T13:20:57.246Z,32.89
2023-05-25T13:22:32.238Z,32.68
2023-05-25T13:23:58.449Z,32.76
2023-05-25T13:25:22.667Z,32.68
2023-05-25T13:26:47.490Z,32.79
2023-05-25T13:28:11.108Z,32.83
2023-05-25T13:29:33.295Z,32.82
2023-05-25T13:30:55.857Z,32.82
2023-05-25T13:32:18.112Z,32.61
2023-05-25T13:33:46.506Z,32.63
2023-05-25T13:35:09.075Z,32.77
2023-05-25T13:36:32.936Z,32.58
2023-05-25T13:57:28.192Z,33.05
2023-05-25T14:02:13.552Z,33.61
2023-05-25T14:10:52.748Z,34.22
2023-05-25T14:32:36.568Z,35.14
2023-05-25T14:34:02.390Z,35.39
2023-05-25T14:35:36.854Z,35.44
2023-05-25T14:37:07.084Z,35.44
2023-05-25T14:41:39.576Z,35.40
2023-05-25T14:45:33.948Z,35.92
2023-05-25T14:47:44.739Z,35.84
2023-05-25T14:49:21.894Z,36.23
2023-05-25T14:59:42.722Z,36.13
2023-05-25T15:01:12.333Z,36.42
2023-05-25T15:02:42.355Z,36.41
2023-05-25T15:04:14.021Z,36.36
2023-05-25T15:05:48.044Z,36.49
2023-05-25T15:07:30.687Z,36.23
2023-05-25T15:08:52.628Z,36.34
2023-05-25T15:12:25.845Z,36.35
2023-05-25T15:13:50.237Z,36.55
2023-05-25T15:15:15.591Z,36.28
2023-05-25T15:16:38.603Z,36.23
2023-05-25T15:18:02.694Z,36.25
2023-05-25T15:19:39.141Z,36.32
2023-05-25T15:21:59.928Z,36.13
2023-05-25T15:29:00.516Z,36.62
2023-05-25T15:33:08.371Z,36.67
2023-05-25T15:34:32.210Z,36.46
2023-05-25T15:36:01.241Z,36.62
2023-05-25T15:40:37.546Z,36.87
2023-05-25T15:45:00.318Z,37.04
2023-05-25T15:52:36.509Z,37.41
2023-05-25T15:54:03.115Z,37.32
2023-05-25T15:55:26.162Z,37.51
2023-05-25T15:59:07.805Z,37.86
2023-05-25T16:46:38.666Z,40.37
2023-05-25T16:51:22.663Z,40.37
2023-05-25T16:52:45.187Z,40.61
2023-05-25T16:54:07.591Z,40.62
2023-05-25T16:55:53.937Z,40.66
2023-05-25T16:57:19.239Z,40.36
2023-05-25T16:59:11.268Z,40.41
2023-05-25T17:01:25.296Z,40.77
2023-05-25T17:02:53.449Z,40.60
2023-05-25T17:04:17.227Z,40.79
2023-05-25T17:05:39.190Z,40.81
2023-05-25T17:07:01.877Z,40.67
2023-05-25T17:08:23.719Z,40.66
2023-05-25T17:09:50.719Z,40.88
2023-05-25T17:11:15.562Z,40.56
2023-05-25T17:12:40.872Z,40.92
2023-05-25T17:14:17.254Z,40.91
2023-05-25T17:16:15.913Z,41.03
2023-05-25T17:18:10.963Z,40.72
2023-05-25T17:19:55.837Z,40.96
2023-05-25T17:21:18.070Z,40.91
2023-05-25T17:23:28.632Z,40.73
2023-05-25T17:27:35.463Z,41.09
2023-05-25T17:32:01.226Z,41.33
2023-05-25T17:33:38.949Z,41.35
2023-05-25T17:35:07.134Z,41.42
2023-05-25T17:36:31.138Z,41.29
2023-05-25T17:37:53.253Z,41.49
2023-05-25T17:39:17.678Z,41.66
2023-05-25T17:40:39.302Z,41.55
2023-05-25T17:42:01.679Z,41.80
2023-05-25T17:43:35.102Z,41.65
2023-05-25T17:45:18.746Z,41.94
2023-05-25T17:46:40.128Z,41.90
2023-05-25T17:48:02.666Z,41.97
2023-05-25T17:49:30.969Z,42.02
2023-05-25T17:50:58.205Z,41.98
2023-05-25T17:52:39.194Z,42.07
2023-05-25T17:54:09.403Z,42.06
2023-05-25T17:57:34.846Z,42.21
2023-05-25T17:59:02.084Z,42.27
2023-05-25T18:00:30.392Z,42.09
2023-05-25T18:02:32.956Z,42.34
2023-05-25T18:04:08.152Z,42.31
2023-05-25T18:05:32.003Z,42.33
2023-05-25T18:07:21.454Z,42.37
2023-05-25T18:09:17.334Z,42.25
2023-05-25T18:20:09.180Z,42.66
2023-05-25T18:24:45.268Z,42.72
2023-05-25T18:26:46.009Z,42.81
2023-05-25T18:28:44.870Z,42.99
2023-05-25T18:33:46.458Z,43.33
2023-05-25T19:44:54.848Z,46.22
2023-05-25T19:46:27.617Z,46.25
2023-05-25T19:50:55.986Z,46.52
2023-05-25T19:52:37.627Z,46.50
2023-05-25T19:56:48.216Z,46.72
2023-05-25T19:58:14.327Z,46.67
2023-05-25T19:59:41.012Z,46.78
2023-05-25T20:01:24.321Z,46.83
2023-05-25T20:03:10.042Z,46.86
2023-05-25T20:04:35.172Z,46.94
2023-05-25T20:05:59.365Z,47.00
2023-05-25T20:07:26.725Z,47.03
2023-05-25T20:08:58.240Z,47.11
2023-05-25T20:10:29.010Z,47.04
2023-05-25T20:14:47.587Z,47.33
2023-05-25T20:16:10.789Z,47.24
2023-05-25T20:17:32.958Z,47.30
2023-05-25T20:19:07.803Z,47.38
2023-05-25T20:20:34.580Z,47.45
2023-05-25T20:21:56.980Z,47.48
2023-05-25T20:23:23.377Z,47.44
2023-05-25T20:25:26.827Z,47.59
2023-05-25T20:27:10.184Z,47.69
2023-05-25T20:31:39.163Z,47.77
2023-05-25T20:33:09.864Z,47.81
2023-05-25T20:37:23.015Z,48.02
2023-05-25T20:39:13.518Z,48.00
2023-05-25T20:43:10.323Z,48.13
2023-05-25T20:44:59.516Z,48.18
2023-05-25T20:46:23.455Z,48.26
2023-05-25T20:48:03.062Z,48.30
2023-05-25T20:49:28.468Z,48.25
2023-05-25T20:51:16.318Z,48.41
2023-05-25T20:52:41.837Z,48.48
2023-05-25T20:54:13.853Z,48.51
2023-05-25T21:07:04.477Z,48.91
2023-05-25T21:08:33.600Z,49.06
2023-05-25T21:10:01.215Z,49.10
2023-05-25T21:11:23.642Z,49.00
2023-05-25T21:12:49.137Z,49.14
2023-05-25T21:14:11.436Z,49.06
2023-05-25T21:15:33.450Z,48.99
2023-05-25T21:16:55.450Z,49.24
2023-05-25T21:18:20.787Z,49.26
2023-05-25T21:19:49.410Z,49.17
2023-05-25T21:21:15.813Z,49.36
2023-05-25T21:23:20.782Z,49.37
2023-05-25T21:24:48.133Z,49.32
2023-05-25T21:26:09.052Z,49.36
2023-05-25T21:27:31.261Z,49.41
2023-05-25T21:29:01.264Z,49.42
2023-05-25T21:30:22.705Z,49.44
2023-05-25T21:31:57.763Z,49.37
2023-05-25T21:33:20.080Z,49.51
2023-05-25T21:35:49.214Z,49.60
2023-05-25T21:37:26.373Z,49.60
2023-05-25T21:38:51.392Z,49.69
2023-05-25T21:40:17.275Z,49.70
2023-05-25T21:41:43.275Z,49.69
2023-05-25T21:43:09.259Z,49.77
2023-05-25T21:45:05.680Z,49.71
2023-05-25T21:46:30.963Z,49.84
2023-05-25T21:47:56.266Z,49.83
2023-05-25T21:49:17.884Z,49.84
2023-05-25T21:50:41.968Z,49.94
2023-05-25T21:52:04.145Z,49.84
2023-05-25T21:53:26.937Z,49.89
2023-05-25T21:54:49.077Z,50.04
2023-05-25T21:56:11.691Z,49.95
2023-05-25T21:57:36.987Z,50.02
2023-05-25T21:58:58.053Z,50.00
2023-05-25T22:00:20.045Z,50.13
2023-05-25T22:04:31.002Z,49.98
2023-05-25T22:05:55.225Z,50.19
2023-05-25T22:07:16.569Z,50.09
2023-05-25T22:08:49.080Z,50.10
2023-05-25T22:10:31.905Z,50.07
2023-05-25T22:12:40.875Z,50.30
2023-05-25T22:14:04.826Z,50.31
2023-05-25T22:15:27.183Z,50.36
2023-05-25T22:16:50.802Z,50.39
2023-05-25T22:18:13.125Z,50.36
2023-05-25T22:19:40.860Z,50.29
2023-05-25T22:21:10.187Z,50.35
2023-05-25T22:22:36.838Z,50.44
2023-05-25T22:24:01.954Z,50.34
2023-05-25T22:25:24.527Z,50.45
2023-05-25T22:26:47.713Z,50.42
2023-05-25T22:28:10.056Z,50.45
2023-05-25T22:29:38.182Z,50.42
2023-05-25T22:31:00.208Z,50.56
2023-05-25T22:32:29.218Z,50.43
2023-05-25T22:33:54.278Z,50.48
2023-05-25T22:35:24.952Z,50.57
2023-05-25T22:36:49.273Z,50.46
2023-05-25T22:38:14.107Z,50.62
2023-05-25T22:39:35.340Z,50.62
2023-05-25T22:41:36.784Z,50.73
2023-05-25T22:42:58.897Z,50.60
2023-05-25T22:44:20.879Z,50.67
2023-05-25T22:45:45.347Z,50.70
2023-05-25T22:47:08.332Z,50.75
2023-05-25T22:48:32.569Z,50.77
2023-05-25T22:50:57.763Z,50.71
2023-05-25T22:52:54.898Z,50.81
2023-05-25T23:05:32.191Z,51.02
2023-05-25T23:06:56.362Z,50.96
2023-05-25T23:08:22.690Z,51.09
2023-05-25T23:09:49.817Z,51.05
2023-05-25T23:11:13.631Z,51.07
2023-05-25T23:12:38.328Z,51.25
2023-05-25T23:14:00.839Z,51.13
2023-05-25T23:15:29.421Z,51.21
2023-05-25T23:16:50.349Z,51.19
2023-05-25T23:18:12.170Z,51.26
2023-05-25T23:19:40.856Z,51.30
2023-05-25T23:21:03.094Z,51.38
2023-05-25T23:22:25.541Z,51.40
2023-05-25T23:23:46.798Z,51.46
2023-05-25T23:25:09.185Z,51.48
2023-05-25T23:26:30.340Z,51.42
2023-05-25T23:27:52.084Z,51.53
2023-05-25T23:29:12.860Z,51.55
2023-05-25T23:30:36.530Z,51.51
2023-05-25T23:32:01.692Z,51.57
2023-05-25T23:33:23.803Z,51.60
2023-05-25T23:34:46.363Z,51.71
2023-05-25T23:36:08.768Z,51.72
2023-05-25T23:37:30.570Z,51.84
2023-05-25T23:38:51.656Z,51.73
2023-05-25T23:40:13.877Z,51.85
2023-05-25T23:41:39.352Z,51.93
2023-05-25T23:43:01.390Z,51.89
2023-05-25T23:44:22.544Z,51.77
2023-05-25T23:45:44.901Z,52.02
2023-05-25T23:47:11.284Z,51.88
2023-05-25T23:48:32.999Z,51.89
2023-05-25T23:49:54.222Z,51.88
2023-05-25T23:51:17.667Z,52.04
2023-05-25T23:52:39.755Z,52.00
2023-05-25T23:54:00.404Z,52.05
2023-05-25T23:55:26.402Z,52.03
2023-05-25T23:56:51.811Z,51.99
2023-05-25T23:58:15.899Z,52.05
2023-05-25T23:59:40.751Z,52.07
